• Join FlightAware (Why Join?)
  • Login
  • US Flag 
03:17PM EST


 

Airport Tracker/Info


-or-


 

Live Flight TrackerFlight Track Log ✈ UAL3740 ✈ 15-Apr-2013 ✈ KPVD - KIAD

Flight Track Log - Related Links

Times and Time Zones

All times are in EDT time to prevent confusion due to time zone crossing. See the UAL3740 flight status page for this flight to view local times or setup timezone preferences in your user account.

Time Position Orientation Groundspeed Altitude Reporting Facility
EDT Latitude Longitude Course Direction KTS MPH feet Rate Location/Type
10:24AM 41.7622 -71.4242 North 188 216 2,400  Level Boston Center
10:26AM 41.8256 -71.5014 318° Northwest 242 278 7,700 3,360 Climbing Boston Center
10:27AM 41.8553 -71.5733 299° West 242 278 10,800 2,340 Climbing Boston Center
10:28AM 41.8456 -71.6847 263° West 276 318 12,400 2,280 Climbing Boston Center
10:29AM 41.8194 -71.8244 256° West 335 386 15,400 2,460 Climbing Boston Center
10:30AM 41.7992 -71.9417 257° West 365 420 17,300 1,620 Climbing Boston Center
10:31AM 41.8517 -72.0722 298° West 346 398 18,600 1,320 Climbing Boston Center
10:32AM 41.9019 -72.1750 303° West 346 398 20,000 1,260 Climbing Boston Center
10:33AM 41.9606 -72.2950 303° West 360 414 21,200 1,140 Climbing Boston Center
10:34AM 41.9981 -72.4317 290° West 381 438 22,300 1,020 Climbing Boston Center
10:35AM 41.9856 -72.5853 264° West 391 450 23,300 900 Climbing Boston Center
10:36AM 41.9789 -72.7361 267° West 397 457 24,200 1,080 Climbing Boston Center
10:37AM 41.9703 -72.8953 266° West 416 479 25,500 1,440 Climbing Boston Center
10:38AM 41.9547 -73.0542 263° West 424 488 27,100 1,560 Climbing Boston Center
10:39AM 41.8936 -73.1819 237° Southwest 410 472 28,600 1,380 Climbing Boston Center
10:40AM 41.8219 -73.3008 231° Southwest 410 472 30,000 420 Climbing Boston Center
10:42AM 41.6531 -73.5753 231° Southwest 443 510 30,000  Level New York Center
10:43AM 41.5836 -73.6944 232° Southwest 455 524 30,000  Level New York Center
10:44AM 41.4992 -73.8208 228° Southwest 455 524 30,000  Level New York Center
10:45AM 41.4106 -73.9383 225° Southwest 460 529 30,000  Level New York Center
10:46AM 41.3200 -74.0583 225° Southwest 460 529 30,000  Level New York Center
10:47AM 41.2269 -74.1808 225° Southwest 460 529 30,000  Level New York Center
10:48AM 41.1208 -74.3131 223° Southwest 478 550 30,000 -300 Level New York Center
10:49AM 41.0406 -74.4189 225° Southwest 473 544 29,400 -1,020 Descending New York Center
10:50AM 40.9450 -74.5428 224° Southwest 456 525 28,000 -720 Descending New York Center
10:51AM 40.8850 -74.6603 236° Southwest 439 505 28,000 -300 Level New York Center
10:52AM 40.8336 -74.8247 248° West 433 498 27,400 -1,260 Descending New York Center
10:53AM 40.7961 -74.9458 248° West 425 489 25,500 -1,740 Descending New York Center
10:54AM 40.7514 -75.0883 248° West 395 455 24,000 -960 Descending New York Center
10:55AM 40.7111 -75.2197 248° West 389 448 23,600 -720 Descending New York Center
10:56AM 40.6525 -75.3336 236° Southwest 407 468 22,700 -960 Descending New York Center
10:57AM 40.5853 -75.4575 234° Southwest 418 481 21,700 -1,020 Descending New York Center
10:58AM 40.5203 -75.5733 234° Southwest 412 474 20,700 -840 Descending New York Center
10:59AM 40.4503 -75.6994 234° Southwest 399 459 20,000 -360 Descending New York Center
11:00AM 40.3872 -75.8119 234° Southwest 394 453 20,000  Level New York Center
11:01AM 40.3283 -75.9194 234° Southwest 394 453 20,000  Level New York Center
11:02AM 40.2628 -76.0342 233° Southwest 394 453 20,000 -180 Level New York Center
11:03AM 40.1992 -76.1517 235° Southwest 394 453 19,700 -960 Descending New York Center
11:04AM 40.1289 -76.2739 233° Southwest 394 453 18,100 -1,500 Descending New York Center
11:06AM 40.0167 -76.5333 241° Southwest 382 440 15,100 -1,020 Descending Potomac TRACON
11:07AM 39.9500 -76.6500 233° Southwest 368 423 15,000  Descending Potomac TRACON
11:08AM 39.9000 -76.7667 241° Southwest 388 447 15,100 -660 Climbing Potomac TRACON
11:09AM 39.8500 -76.8667 237° Southwest 358 412 13,800 -1,800 Descending Potomac TRACON
11:10AM 39.8000 -76.9667 237° Southwest 334 384 11,700 -1,800 Descending Potomac TRACON
11:11AM 39.7667 -77.0500 243° Southwest 300 345 10,200 -1,740 Descending Potomac TRACON
11:12AM 39.7333 -77.1333 243° Southwest 276 318 8,500 -1,140 Descending Potomac TRACON
11:13AM 39.6833 -77.2167 232° Southwest 268 308 8,000 -300 Descending Potomac TRACON
11:14AM 39.6333 -77.2833 226° Southwest 254 292 8,000  Level Potomac TRACON
11:15AM 39.5833 -77.3167 207° Southwest 212 244 8,000 -960 Level Potomac TRACON
11:16AM 39.5333 -77.3000 166° South 226 260 6,200 -1,800 Descending Potomac TRACON
11:17AM 39.4833 -77.3500 218° Southwest 218 251 4,600 -1,140 Descending Potomac TRACON
11:18AM 39.4333 -77.3833 207° Southwest 202 232 4,000 -300 Descending Potomac TRACON
11:19AM 39.3833 -77.4167 207° Southwest 218 251 4,000  Level Potomac TRACON
11:20AM 39.3167 -77.4333 191° South 218 251 4,000 -540 Level Potomac TRACON
11:21AM 39.2667 -77.4333 180° South 212 244 3,000 -480 Descending Potomac TRACON
11:22AM 39.2000 -77.4333 180° South 208 239 3,000  Level Potomac TRACON
11:23AM 39.1500 -77.4333 180° South 224 258 3,000  Level Potomac TRACON
11:24AM 39.0833 -77.4333 180° South 211 243 3,000 -540 Level Potomac TRACON
11:25AM 39.0333 -77.4333 180° South 186 214 2,000 -960 Descending Potomac TRACON
11:26AM 39.0000 -77.4333 180° South 145 167 1,100 -840 Descending Potomac TRACON
11:28AM 38.9474 -77.4599 180° South  Level Estimated
11:35AM 38.9474 -77.4599 349° North  Level Estimated